createdAt,value
2018-11-11T00:00:08.447Z,17.27
2018-11-11T00:10:09.717Z,14.67
2018-11-11T00:20:10.975Z,13.93
2018-11-11T00:30:12.236Z,15.07
2018-11-11T00:40:14.265Z,14.70
2018-11-11T00:50:15.551Z,15.07
2018-11-11T01:00:16.821Z,17.43
2018-11-11T01:10:18.081Z,15.07
2018-11-11T01:20:19.314Z,15.70
2018-11-11T01:30:20.595Z,20.10
2018-11-11T01:40:21.834Z,20.27
2018-11-11T01:50:23.086Z,22.77
2018-11-11T02:00:24.318Z,22.37
2018-11-11T02:10:25.567Z,20.27
2018-11-11T02:20:26.831Z,20.70
2018-11-11T02:30:28.097Z,17.63
2018-11-11T02:40:29.360Z,17.63
2018-11-11T02:50:30.640Z,17.83
2018-11-11T03:00:31.932Z,15.13
2018-11-11T03:10:33.196Z,15.70
2018-11-11T03:20:34.441Z,14.93
2018-11-11T03:30:36.488Z,14.13
2018-11-11T03:40:38.491Z,15.17
2018-11-11T03:50:40.516Z,15.17
2018-11-11T04:00:41.773Z,15.20
2018-11-11T04:10:43.042Z,13.27
2018-11-11T04:20:44.316Z,14.33
2018-11-11T04:30:45.591Z,13.37
2018-11-11T04:40:47.630Z,13.77
2018-11-11T04:50:49.995Z,14.97
2018-11-11T05:00:51.254Z,13.13
2018-11-11T05:10:52.526Z,14.90
2018-11-11T05:20:53.896Z,13.57
2018-11-11T05:30:55.150Z,14.17
2018-11-11T05:40:56.540Z,14.43
2018-11-11T05:50:57.790Z,13.97
2018-11-11T06:00:59.102Z,13.67
2018-11-11T06:11:00.382Z,13.13
2018-11-11T06:21:01.640Z,13.73
2018-11-11T06:31:02.939Z,13.30
2018-11-11T06:41:04.205Z,12.23
2018-11-11T06:51:05.459Z,13.53
2018-11-11T07:01:07.494Z,10.60
2018-11-11T07:11:09.526Z,10.07
2018-11-11T07:21:10.934Z,8.30
2018-11-11T07:31:12.186Z,7.27
2018-11-11T07:41:14.250Z,6.60
2018-11-11T07:51:16.593Z,6.47
2018-11-11T08:01:17.882Z,6.87
2018-11-11T08:11:19.496Z,6.33
2018-11-11T08:21:20.691Z,6.90
2018-11-11T08:31:21.956Z,6.00
2018-11-11T08:41:23.231Z,6.75
2018-11-11T08:51:24.478Z,6.78
2018-11-11T09:01:25.720Z,6.80
2018-11-11T09:11:26.982Z,6.07
2018-11-11T09:21:28.266Z,5.65
2018-11-11T09:31:29.581Z,6.43
2018-11-11T09:41:31.619Z,5.70
2018-11-11T09:51:32.899Z,6.40
2018-11-11T10:01:34.168Z,4.63
2018-11-11T10:11:35.439Z,5.00
2018-11-11T10:21:36.707Z,4.97
2018-11-11T10:31:37.957Z,4.23
2018-11-11T10:41:39.207Z,3.95
2018-11-11T10:51:40.476Z,4.00
2018-11-11T11:01:41.727Z,4.00
2018-11-11T11:11:43.002Z,3.60
2018-11-11T11:21:44.259Z,2.97
2018-11-11T11:31:45.888Z,3.67
2018-11-11T11:41:47.330Z,3.87
2018-11-11T11:51:48.691Z,3.43
2018-11-11T12:01:49.961Z,2.97
2018-11-11T12:11:51.316Z,3.40
2018-11-11T12:21:52.609Z,3.73
2018-11-11T12:31:53.862Z,3.50
2018-11-11T12:41:55.138Z,3.47
2018-11-11T12:51:56.426Z,4.00
2018-11-11T13:01:58.521Z,3.60
2018-11-11T13:11:59.828Z,3.40
2018-11-11T13:22:01.057Z,3.20
2018-11-11T13:32:02.519Z,4.03
2018-11-11T13:42:03.829Z,3.43
2018-11-11T13:52:06.126Z,3.37
2018-11-11T14:02:07.412Z,3.23
2018-11-11T14:12:08.722Z,2.70
2018-11-11T14:22:09.974Z,2.37
2018-11-11T14:32:11.279Z,2.40
2018-11-11T14:42:12.493Z,3.03
2018-11-11T14:52:13.916Z,3.60
2018-11-11T15:02:15.055Z,3.43
2018-11-11T15:12:16.367Z,4.20
2018-11-11T15:22:17.722Z,4.97
2018-11-11T15:32:18.977Z,5.37
2018-11-11T15:42:20.290Z,7.13
2018-11-11T15:52:21.595Z,6.43
2018-11-11T16:02:22.860Z,9.20
2018-11-11T16:12:24.146Z,7.97
2018-11-11T16:22:25.411Z,6.63
2018-11-11T16:32:26.650Z,7.10
2018-11-11T16:42:27.942Z,6.57
2018-11-11T16:52:29.202Z,7.10
2018-11-11T17:02:30.446Z,7.27
2018-11-11T17:12:31.737Z,7.37
2018-11-11T17:22:33.220Z,9.37
2018-11-11T17:32:35.495Z,9.07
2018-11-11T17:42:36.668Z,11.00
2018-11-11T17:52:37.950Z,11.13
2018-11-11T18:02:39.224Z,12.97
2018-11-11T18:12:40.506Z,14.40
2018-11-11T18:22:41.756Z,10.40
2018-11-11T18:32:43.754Z,12.17
2018-11-11T18:42:45.005Z,11.80
2018-11-11T18:52:46.282Z,11.03
2018-11-11T19:02:47.637Z,10.13
2018-11-11T19:12:48.947Z,9.80
2018-11-11T19:22:51.087Z,10.70
2018-11-11T19:32:52.366Z,11.63
2018-11-11T19:42:54.452Z,11.17
2018-11-11T19:52:55.862Z,11.23
2018-11-11T20:02:57.131Z,12.63
2018-11-11T20:12:58.425Z,10.60
2018-11-11T20:22:59.700Z,10.20
2018-11-11T20:33:01.101Z,10.73
2018-11-11T20:43:02.382Z,9.70
2018-11-11T20:53:03.602Z,9.70
2018-11-11T21:03:04.874Z,9.80
2018-11-11T21:13:06.155Z,9.53
2018-11-11T21:23:07.451Z,9.67
2018-11-11T21:33:09.500Z,9.50
2018-11-11T21:43:10.824Z,9.50
2018-11-11T21:53:12.185Z,10.23
2018-11-11T22:03:13.368Z,9.73
2018-11-11T22:13:14.604Z,9.67
2018-11-11T22:23:15.882Z,8.43
2018-11-11T22:33:17.124Z,9.17
2018-11-11T22:43:18.350Z,9.53
2018-11-11T22:53:19.639Z,8.60
2018-11-11T23:03:20.906Z,9.10
2018-11-11T23:13:22.164Z,9.50
2018-11-11T23:23:23.451Z,8.90
2018-11-11T23:33:24.738Z,8.87
2018-11-11T23:43:25.996Z,7.70
2018-11-11T23:53:28.015Z,8.03
